Time;durP1;ratioP1;P1;durP2;ratioP2;P2;SDS_P1;SDS_P2;PMS_P1;PMS_P2;Temp;Humidity;BMP_temperature;BMP_pressure;BME280_temperature;BME280_humidity;BME280_pressure;Samples;Min_cycle;Max_cycle;Signal;HPM_P1;HPM_P2
2023/08/26 00:00:37;;;;;;;4.15;3.78;;;;;;;;;;5038313;28;20202;-86
2023/08/26 00:03:05;;;;;;;4.18;3.78;;;;;;;;;;5014228;28;20223;-86
2023/08/26 00:05:30;;;;;;;3.60;3.30;;;;;;;;;;5021410;28;20249;-85
2023/08/26 00:07:56;;;;;;;3.75;3.42;;;;;;;;;;5018166;28;20227;-85
2023/08/26 00:10:28;;;;;;;3.67;3.35;;;;;;;;;;5018663;28;20219;-84
2023/08/26 00:12:54;;;;;;;4.30;4.00;;;;;;;;;;5040596;28;20248;-83
2023/08/26 00:15:19;;;;;;;3.97;3.67;;;;;;;;;;5053052;28;20344;-84
2023/08/26 00:17:52;;;;;;;7.65;4.10;;;;;;;;;;5023250;28;20238;-86
2023/08/26 00:20:21;;;;;;;4.38;3.90;;;;;;;;;;5005228;28;20377;-86
2023/08/26 00:22:49;;;;;;;3.60;3.30;;;;;;;;;;5041469;28;20274;-86
2023/08/26 00:25:16;;;;;;;3.80;3.50;;;;;;;;;;5025236;28;20275;-87
2023/08/26 00:27:44;;;;;;;4.38;3.97;;;;;;;;;;5041990;28;20218;-86
2023/08/26 00:30:12;;;;;;;4.32;4.00;;;;;;;;;;5006498;28;20225;-85
2023/08/26 00:32:43;;;;;;;4.25;3.83;;;;;;;;;;5039834;28;20223;-86
2023/08/26 00:35:09;;;;;;;4.30;3.90;;;;;;;;;;5031433;28;20232;-87
2023/08/26 00:37:36;;;;;;;4.47;4.18;;;;;;;;;;5018490;28;20267;-84
2023/08/26 00:40:02;;;;;;;4.38;4.05;;;;;;;;;;5017839;28;20233;-84
2023/08/26 00:42:28;;;;;;;4.88;4.47;;;;;;;;;;5026578;28;20609;-85
2023/08/26 00:44:53;;;;;;;4.85;4.43;;;;;;;;;;5020196;28;20231;-86
2023/08/26 00:47:19;;;;;;;4.95;4.35;;;;;;;;;;5012373;28;20759;-84
2023/08/26 00:49:47;;;;;;;5.60;5.10;;;;;;;;;;5021528;28;20257;-85
2023/08/26 00:52:13;;;;;;;5.25;4.75;;;;;;;;;;5037766;28;20227;-86
2023/08/26 00:54:39;;;;;;;5.20;4.80;;;;;;;;;;5018057;28;20253;-85
2023/08/26 00:57:07;;;;;;;6.20;5.65;;;;;;;;;;5030684;28;20223;-84
2023/08/26 00:59:32;;;;;;;5.88;5.32;;;;;;;;;;5010772;28;20314;-85
2023/08/26 01:02:02;;;;;;;5.90;5.50;;;;;;;;;;5017132;28;20230;-85
2023/08/26 01:04:30;;;;;;;6.22;5.78;;;;;;;;;;5049868;28;20247;-85
2023/08/26 01:06:58;;;;;;;7.22;6.53;;;;;;;;;;5021589;28;20222;-85
2023/08/26 01:09:27;;;;;;;7.05;6.45;;;;;;;;;;5018319;28;20241;-84
2023/08/26 01:11:55;;;;;;;6.70;6.07;;;;;;;;;;5019485;28;20246;-85
2023/08/26 01:14:21;;;;;;;7.22;6.53;;;;;;;;;;5072470;28;20317;-85
2023/08/26 01:16:46;;;;;;;6.30;5.80;;;;;;;;;;5040597;28;20242;-85
2023/08/26 01:19:39;;;;;;;7.28;6.57;;;;;;;;;;5013837;28;20243;-85
2023/08/26 01:22:08;;;;;;;7.90;7.20;;;;;;;;;;5038583;28;20287;-84
2023/08/26 01:24:37;;;;;;;8.23;7.53;;;;;;;;;;5026472;28;20230;-86
2023/08/26 01:27:07;;;;;;;8.32;7.57;;;;;;;;;;5023149;28;20755;-84
2023/08/26 01:29:33;;;;;;;7.07;6.47;;;;;;;;;;5025195;28;20230;-84
2023/08/26 01:32:05;;;;;;;7.45;6.75;;;;;;;;;;5018812;28;20293;-83
2023/08/26 01:34:34;;;;;;;7.68;7.00;;;;;;;;;;5038894;28;20235;-84
2023/08/26 01:37:00;;;;;;;6.90;6.30;;;;;;;;;;5020461;28;20225;-84
2023/08/26 01:39:28;;;;;;;7.82;6.82;;;;;;;;;;5022405;28;20290;-84
2023/08/26 01:41:54;;;;;;;7.95;7.15;;;;;;;;;;5020907;28;20222;-84
2023/08/26 01:44:21;;;;;;;7.93;7.32;;;;;;;;;;5017753;28;20344;-84
2023/08/26 01:46:49;;;;;;;7.88;7.07;;;;;;;;;;5017393;28;20287;-84
2023/08/26 01:49:15;;;;;;;8.25;7.57;;;;;;;;;;5006535;28;20217;-85
2023/08/26 01:51:43;;;;;;;8.93;8.23;;;;;;;;;;5039798;28;20234;-84
2023/08/26 01:54:11;;;;;;;8.10;7.40;;;;;;;;;;5056447;28;20222;-84
2023/08/26 01:56:40;;;;;;;8.73;7.25;;;;;;;;;;5027042;28;20210;-84
2023/08/26 01:59:05;;;;;;;7.68;6.45;;;;;;;;;;5045221;28;20314;-84
2023/08/26 02:01:33;;;;;;;8.45;7.75;;;;;;;;;;5044107;28;20222;-84
2023/08/26 02:04:00;;;;;;;9.63;8.82;;;;;;;;;;5021581;28;20301;-84
2023/08/26 02:06:26;;;;;;;9.02;8.23;;;;;;;;;;5036799;28;20214;-85
2023/08/26 02:08:53;;;;;;;9.35;8.48;;;;;;;;;;5001877;28;20246;-86
2023/08/26 02:11:21;;;;;;;9.68;8.77;;;;;;;;;;5034556;28;20222;-85
2023/08/26 02:13:49;;;;;;;10.55;9.32;;;;;;;;;;5022018;28;20226;-84
2023/08/26 02:16:14;;;;;;;9.82;8.93;;;;;;;;;;5016500;28;20218;-85
2023/08/26 02:18:40;;;;;;;9.90;8.90;;;;;;;;;;5044893;28;20217;-85
2023/08/26 02:21:08;;;;;;;10.15;9.25;;;;;;;;;;5043010;28;21018;-85
2023/08/26 02:23:34;;;;;;;11.45;10.43;;;;;;;;;;5061153;28;20210;-85
2023/08/26 02:26:00;;;;;;;13.38;11.27;;;;;;;;;;5039498;28;20607;-85
2023/08/26 02:28:25;;;;;;;12.43;11.32;;;;;;;;;;5052788;28;20230;-85
2023/08/26 02:30:56;;;;;;;11.80;10.80;;;;;;;;;;5044464;28;20219;-85
2023/08/26 02:33:27;;;;;;;11.55;10.50;;;;;;;;;;5045691;28;20729;-86
2023/08/26 02:35:52;;;;;;;11.10;10.20;;;;;;;;;;5040189;28;20219;-85
2023/08/26 02:38:18;;;;;;;15.60;10.93;;;;;;;;;;5037615;28;20215;-86
2023/08/26 02:40:51;;;;;;;12.23;11.15;;;;;;;;;;5026336;28;20240;-86
2023/08/26 02:43:17;;;;;;;13.90;12.35;;;;;;;;;;5008007;28;20223;-85
2023/08/26 02:45:42;;;;;;;12.05;11.05;;;;;;;;;;5043585;28;20233;-83
2023/08/26 02:48:10;;;;;;;14.65;13.35;;;;;;;;;;5033778;28;20225;-86
2023/08/26 02:50:38;;;;;;;15.73;14.43;;;;;;;;;;5042955;28;20222;-85
2023/08/26 02:53:04;;;;;;;17.70;15.57;;;;;;;;;;5013712;28;20222;-86
2023/08/26 02:55:34;;;;;;;19.25;17.45;;;;;;;;;;5034222;28;20223;-86
2023/08/26 02:58:00;;;;;;;18.60;16.90;;;;;;;;;;5042337;28;20226;-86
2023/08/26 03:00:29;;;;;;;19.20;17.33;;;;;;;;;;5009178;28;20233;-84
2023/08/26 03:02:54;;;;;;;18.58;16.85;;;;;;;;;;5023697;28;20215;-85
2023/08/26 03:05:20;;;;;;;20.10;18.33;;;;;;;;;;5006815;28;20394;-86
2023/08/26 03:07:45;;;;;;;19.85;17.88;;;;;;;;;;5031457;28;20233;-87
2023/08/26 03:10:14;;;;;;;22.27;20.38;;;;;;;;;;5026306;28;20218;-86
2023/08/26 03:12:39;;;;;;;28.77;22.23;;;;;;;;;;5031250;28;20236;-86
2023/08/26 03:15:06;;;;;;;25.98;23.55;;;;;;;;;;5039079;28;20242;-87
2023/08/26 03:17:34;;;;;;;27.23;24.80;;;;;;;;;;5045182;28;20778;-86
2023/08/26 03:20:05;;;;;;;28.52;25.90;;;;;;;;;;5019909;28;20222;-87
2023/08/26 03:22:30;;;;;;;30.35;27.45;;;;;;;;;;5028041;28;20230;-85
2023/08/26 03:24:56;;;;;;;35.60;31.95;;;;;;;;;;5039605;28;20230;-87
2023/08/26 03:27:24;;;;;;;34.15;30.88;;;;;;;;;;5022246;28;20222;-86
2023/08/26 03:29:53;;;;;;;39.38;35.42;;;;;;;;;;5025252;28;20210;-86
2023/08/26 03:32:21;;;;;;;38.00;34.35;;;;;;;;;;5019053;28;20246;-86
2023/08/26 03:34:52;;;;;;;39.95;35.88;;;;;;;;;;5043118;28;20219;-85
2023/08/26 03:37:20;;;;;;;40.92;36.63;;;;;;;;;;5034030;28;20276;-85
2023/08/26 03:39:46;;;;;;;42.28;37.88;;;;;;;;;;5020322;28;20281;-87
2023/08/26 03:42:15;;;;;;;42.72;38.53;;;;;;;;;;5034014;28;20195;-84
2023/08/26 03:44:40;;;;;;;42.15;37.85;;;;;;;;;;5037174;28;20275;-84
2023/08/26 03:47:08;;;;;;;42.20;37.90;;;;;;;;;;5038738;28;20290;-84
2023/08/26 03:49:36;;;;;;;40.83;36.83;;;;;;;;;;5049703;28;20219;-88
2023/08/26 03:52:06;;;;;;;41.67;37.60;;;;;;;;;;5038152;28;20215;-86
2023/08/26 03:54:33;;;;;;;41.42;37.22;;;;;;;;;;5018792;28;20288;-87
2023/08/26 03:57:00;;;;;;;41.55;37.35;;;;;;;;;;5022337;28;20207;-86
2023/08/26 03:59:29;;;;;;;42.38;38.03;;;;;;;;;;5014263;28;20243;-87
2023/08/26 04:05:41;;;;;;;40.20;36.28;;;;;;;;;;5073719;28;20225;-87
2023/08/26 04:08:06;;;;;;;38.65;34.90;;;;;;;;;;5024101;28;20606;-86
2023/08/26 04:10:39;;;;;;;37.85;34.33;;;;;;;;;;5015263;28;20226;-87
2023/08/26 04:13:21;;;;;;;39.92;35.85;;;;;;;;;;5042163;28;20607;-86
2023/08/26 04:15:49;;;;;;;39.92;35.85;;;;;;;;;;5037975;28;20734;-83
2023/08/26 04:18:20;;;;;;;39.20;35.30;;;;;;;;;;5022874;28;20624;-86
2023/08/26 04:20:52;;;;;;;39.92;36.03;;;;;;;;;;5014477;28;20203;-85
2023/08/26 04:23:17;;;;;;;38.88;34.90;;;;;;;;;;5029242;28;20224;-86
2023/08/26 04:25:46;;;;;;;38.17;34.60;;;;;;;;;;5025738;28;20598;-88
2023/08/26 04:28:16;;;;;;;39.78;35.65;;;;;;;;;;5039203;28;20223;-84
2023/08/26 04:30:43;;;;;;;39.38;35.42;;;;;;;;;;5016494;28;20282;-85
2023/08/26 04:33:09;;;;;;;39.80;35.50;;;;;;;;;;5019875;28;20323;-85
2023/08/26 04:35:39;;;;;;;38.38;34.67;;;;;;;;;;5038016;28;20246;-88
2023/08/26 04:38:05;;;;;;;37.05;33.40;;;;;;;;;;5057742;28;20245;-86
2023/08/26 04:40:33;;;;;;;39.42;35.67;;;;;;;;;;5032823;28;20231;-86
2023/08/26 04:43:03;;;;;;;38.15;34.53;;;;;;;;;;5024674;28;20217;-86
2023/08/26 04:45:29;;;;;;;41.17;36.92;;;;;;;;;;5038977;28;20234;-84
2023/08/26 04:47:54;;;;;;;40.70;36.83;;;;;;;;;;5053759;28;20268;-85
2023/08/26 04:50:20;;;;;;;42.50;38.08;;;;;;;;;;4999157;28;20632;-86
2023/08/26 04:52:48;;;;;;;40.85;36.95;;;;;;;;;;5036064;28;20254;-86
2023/08/26 04:55:14;;;;;;;41.53;37.55;;;;;;;;;;5029367;28;20227;-88
2023/08/26 04:57:42;;;;;;;39.65;35.90;;;;;;;;;;5016623;28;20307;-87
2023/08/26 05:00:11;;;;;;;41.17;36.97;;;;;;;;;;5035518;28;20516;-88
2023/08/26 05:02:40;;;;;;;42.00;37.88;;;;;;;;;;5028173;28;20226;-86
2023/08/26 05:05:07;;;;;;;41.53;37.38;;;;;;;;;;5022818;28;20219;-87
2023/08/26 05:07:33;;;;;;;42.80;38.28;;;;;;;;;;5034629;28;20290;-88
2023/08/26 05:09:59;;;;;;;42.05;37.80;;;;;;;;;;5022752;28;20680;-86
2023/08/26 05:12:27;;;;;;;42.30;38.08;;;;;;;;;;5035212;28;20223;-87
2023/08/26 05:14:54;;;;;;;41.30;36.88;;;;;;;;;;5044325;28;20222;-87
2023/08/26 05:17:22;;;;;;;41.97;37.63;;;;;;;;;;5029044;28;20250;-86
2023/08/26 05:19:50;;;;;;;39.30;35.30;;;;;;;;;;5054593;28;20691;-87
2023/08/26 05:22:18;;;;;;;41.70;37.40;;;;;;;;;;5021979;28;20206;-87
2023/08/26 05:24:44;;;;;;;41.03;36.72;;;;;;;;;;5040447;28;20251;-87
2023/08/26 05:27:10;;;;;;;38.50;34.88;;;;;;;;;;5046525;28;20215;-87
2023/08/26 05:29:36;;;;;;;39.63;35.72;;;;;;;;;;5016222;28;20769;-87
2023/08/26 05:32:02;;;;;;;38.72;34.83;;;;;;;;;;5024886;28;20223;-86
2023/08/26 05:34:28;;;;;;;37.55;33.80;;;;;;;;;;5039391;28;20234;-86
2023/08/26 05:36:53;;;;;;;36.65;33.13;;;;;;;;;;5025592;28;20843;-84
2023/08/26 05:39:19;;;;;;;34.50;31.25;;;;;;;;;;5028668;28;20223;-84
2023/08/26 05:41:49;;;;;;;35.67;32.28;;;;;;;;;;5020391;28;20266;-84
2023/08/26 05:44:17;;;;;;;33.38;30.35;;;;;;;;;;5036474;28;20785;-86
2023/08/26 05:46:42;;;;;;;32.80;29.65;;;;;;;;;;5035194;28;20214;-87
2023/08/26 05:49:08;;;;;;;33.33;30.10;;;;;;;;;;4999533;28;20207;-84
2023/08/26 05:51:35;;;;;;;31.13;28.15;;;;;;;;;;5055433;28;20231;-87
2023/08/26 05:54:00;;;;;;;32.58;29.48;;;;;;;;;;5055033;28;20226;-85
2023/08/26 05:56:29;;;;;;;32.47;29.48;;;;;;;;;;5036480;28;20223;-85
2023/08/26 05:58:57;;;;;;;32.35;29.35;;;;;;;;;;5040925;28;20218;-85
2023/08/26 06:01:23;;;;;;;31.77;28.88;;;;;;;;;;5039887;28;20222;-84
2023/08/26 06:03:48;;;;;;;30.80;27.85;;;;;;;;;;5037618;28;20870;-83
2023/08/26 06:06:16;;;;;;;30.13;26.98;;;;;;;;;;5041477;28;20781;-86
2023/08/26 06:08:45;;;;;;;28.98;26.33;;;;;;;;;;5024642;28;20761;-81
2023/08/26 06:11:10;;;;;;;29.83;26.80;;;;;;;;;;5038542;28;20222;-83
2023/08/26 06:13:38;;;;;;;27.63;25.13;;;;;;;;;;5019376;28;20223;-85
2023/08/26 06:16:04;;;;;;;28.17;25.40;;;;;;;;;;5042332;28;20214;-85
2023/08/26 06:18:30;;;;;;;25.75;23.27;;;;;;;;;;5038168;28;20292;-82
2023/08/26 06:20:55;;;;;;;25.90;23.52;;;;;;;;;;5019743;28;20423;-82
2023/08/26 06:23:23;;;;;;;25.42;23.02;;;;;;;;;;5037363;28;20220;-86
2023/08/26 06:25:52;;;;;;;25.35;22.98;;;;;;;;;;5006130;28;20234;-84
2023/08/26 06:28:18;;;;;;;26.27;23.48;;;;;;;;;;5033026;28;20218;-84
2023/08/26 06:30:48;;;;;;;25.27;22.85;;;;;;;;;;5020064;28;20223;-84
2023/08/26 06:33:18;;;;;;;24.00;21.90;;;;;;;;;;5015231;28;20585;-84
2023/08/26 06:35:49;;;;;;;23.52;21.30;;;;;;;;;;5029341;28;20288;-83
2023/08/26 06:38:17;;;;;;;24.40;21.98;;;;;;;;;;5039258;28;20257;-83
2023/08/26 06:40:43;;;;;;;24.50;22.17;;;;;;;;;;5024281;28;20584;-83
2023/08/26 06:43:10;;;;;;;24.08;22.00;;;;;;;;;;5021339;28;20281;-86
2023/08/26 06:45:40;;;;;;;24.15;21.73;;;;;;;;;;5022638;28;20261;-85
2023/08/26 06:48:08;;;;;;;24.00;21.70;;;;;;;;;;5035006;28;20210;-85
2023/08/26 06:50:36;;;;;;;22.90;20.88;;;;;;;;;;5031165;28;20222;-86
2023/08/26 06:53:02;;;;;;;21.17;19.02;;;;;;;;;;5055851;28;20244;-85
2023/08/26 06:55:27;;;;;;;21.05;18.77;;;;;;;;;;5015512;28;20235;-86
2023/08/26 06:57:53;;;;;;;22.48;20.33;;;;;;;;;;5051864;28;20219;-86
2023/08/26 07:00:26;;;;;;;20.98;18.98;;;;;;;;;;5047165;28;20274;-83
2023/08/26 07:02:52;;;;;;;23.13;19.05;;;;;;;;;;5041109;28;20227;-84
2023/08/26 07:05:18;;;;;;;19.92;18.10;;;;;;;;;;5013119;28;20314;-84
2023/08/26 07:07:43;;;;;;;19.73;17.85;;;;;;;;;;5017637;28;20679;-85
2023/08/26 07:10:11;;;;;;;20.67;18.65;;;;;;;;;;5015642;28;20214;-86
2023/08/26 07:12:37;;;;;;;19.00;16.98;;;;;;;;;;5024938;28;20230;-86
2023/08/26 07:15:03;;;;;;;20.13;18.30;;;;;;;;;;5055650;28;20225;-84
2023/08/26 07:17:28;;;;;;;19.15;17.45;;;;;;;;;;5019874;28;20230;-83
2023/08/26 07:19:58;;;;;;;19.90;17.77;;;;;;;;;;5016378;28;20219;-84
2023/08/26 07:22:28;;;;;;;18.95;17.10;;;;;;;;;;5022756;28;20230;-83
2023/08/26 07:24:54;;;;;;;18.92;17.02;;;;;;;;;;5016442;28;20234;-84
2023/08/26 07:27:23;;;;;;;18.45;16.83;;;;;;;;;;5017945;28;20211;-84
2023/08/26 07:29:51;;;;;;;18.23;16.55;;;;;;;;;;5006177;28;20687;-83
2023/08/26 07:32:16;;;;;;;17.15;15.57;;;;;;;;;;5034615;28;20231;-84
2023/08/26 07:34:42;;;;;;;17.77;15.98;;;;;;;;;;5039817;28;20253;-85
2023/08/26 07:37:09;;;;;;;17.33;15.55;;;;;;;;;;5038465;28;20221;-86
2023/08/26 07:39:40;;;;;;;17.20;15.43;;;;;;;;;;5029435;28;20981;-85
2023/08/26 07:42:05;;;;;;;16.83;15.20;;;;;;;;;;5021846;28;20249;-85
2023/08/26 07:44:36;;;;;;;14.85;13.43;;;;;;;;;;5013386;28;20239;-82
2023/08/26 07:47:04;;;;;;;13.50;11.77;;;;;;;;;;5034334;28;20215;-85
2023/08/26 07:49:29;;;;;;;12.40;11.27;;;;;;;;;;5013252;28;20223;-85
2023/08/26 07:51:55;;;;;;;14.43;12.05;;;;;;;;;;5021887;28;20226;-84
2023/08/26 07:54:21;;;;;;;14.68;13.27;;;;;;;;;;5022006;28;20214;-85
2023/08/26 07:56:51;;;;;;;14.77;13.50;;;;;;;;;;5053053;28;20222;-83
2023/08/26 07:59:19;;;;;;;15.23;13.77;;;;;;;;;;5017565;28;20322;-80
2023/08/26 08:01:45;;;;;;;14.73;13.35;;;;;;;;;;5014348;28;20219;-83
2023/08/26 08:04:13;;;;;;;16.02;14.65;;;;;;;;;;5062890;28;20211;-82
2023/08/26 08:06:39;;;;;;;13.60;12.20;;;;;;;;;;5062468;28;20223;-82
2023/08/26 08:09:05;;;;;;;13.77;12.57;;;;;;;;;;5044288;28;20203;-83
2023/08/26 08:11:31;;;;;;;15.27;13.75;;;;;;;;;;5025289;28;20223;-83
2023/08/26 08:13:56;;;;;;;15.73;14.32;;;;;;;;;;5024578;28;20219;-84
2023/08/26 08:16:22;;;;;;;16.13;14.57;;;;;;;;;;5025552;28;22341;-80
2023/08/26 08:18:47;;;;;;;15.98;14.38;;;;;;;;;;5026329;28;20797;-78
2023/08/26 08:21:13;;;;;;;14.80;13.43;;;;;;;;;;5035072;28;20211;-77
2023/08/26 08:23:43;;;;;;;14.93;13.52;;;;;;;;;;5014846;28;20219;-78
2023/08/26 08:26:08;;;;;;;14.05;12.73;;;;;;;;;;5050957;28;20212;-80
2023/08/26 08:28:36;;;;;;;14.85;12.48;;;;;;;;;;5029356;28;20581;-80
2023/08/26 08:31:02;;;;;;;11.27;10.27;;;;;;;;;;5060616;28;20215;-77
2023/08/26 08:33:33;;;;;;;7.40;6.70;;;;;;;;;;5031129;28;20223;-79
2023/08/26 08:36:00;;;;;;;6.70;6.10;;;;;;;;;;5027354;28;20231;-79
2023/08/26 08:38:28;;;;;;;6.00;5.45;;;;;;;;;;5031548;28;20227;-80
2023/08/26 08:40:53;;;;;;;6.15;5.57;;;;;;;;;;5012256;28;20800;-80
2023/08/26 08:43:21;;;;;;;4.60;4.15;;;;;;;;;;5027324;28;20216;-79
2023/08/26 08:45:49;;;;;;;4.63;4.20;;;;;;;;;;5047782;28;20298;-78
2023/08/26 08:48:14;;;;;;;4.75;3.92;;;;;;;;;;5020082;28;20218;-79
2023/08/26 08:50:40;;;;;;;4.80;4.15;;;;;;;;;;5012234;28;20230;-80
2023/08/26 08:53:05;;;;;;;4.65;4.25;;;;;;;;;;5034264;28;20211;-79
2023/08/26 08:55:34;;;;;;;3.60;3.40;;;;;;;;;;5035876;28;20234;-78
2023/08/26 08:58:02;;;;;;;3.95;3.65;;;;;;;;;;5043513;28;20218;-79
2023/08/26 09:00:28;;;;;;;4.68;4.13;;;;;;;;;;5059363;28;20659;-79
2023/08/26 09:02:54;;;;;;;3.85;3.15;;;;;;;;;;5011005;28;20653;-78
2023/08/26 09:05:20;;;;;;;4.00;3.40;;;;;;;;;;5033487;28;20313;-78
2023/08/26 09:07:45;;;;;;;3.90;3.08;;;;;;;;;;5011441;28;21078;-80
2023/08/26 09:10:11;;;;;;;5.50;3.47;;;;;;;;;;5018431;28;20982;-79
2023/08/26 09:12:38;;;;;;;3.20;2.53;;;;;;;;;;5012596;28;20238;-80
2023/08/26 09:15:06;;;;;;;4.82;2.40;;;;;;;;;;5009820;28;20223;-78
2023/08/26 09:17:32;;;;;;;3.45;3.00;;;;;;;;;;5052179;28;20245;-79
2023/08/26 09:20:01;;;;;;;3.00;2.75;;;;;;;;;;5028501;28;20227;-78
2023/08/26 09:22:30;;;;;;;3.58;2.95;;;;;;;;;;5011258;28;20215;-78
2023/08/26 09:25:02;;;;;;;4.60;3.20;;;;;;;;;;5023492;28;20227;-79
2023/08/26 09:27:30;;;;;;;3.47;3.17;;;;;;;;;;5042599;28;20226;-78
2023/08/26 09:30:00;;;;;;;3.97;3.58;;;;;;;;;;5014599;28;20222;-80
2023/08/26 09:32:36;;;;;;;3.67;3.38;;;;;;;;;;5037276;28;20320;-85
2023/08/26 09:35:15;;;;;;;5.30;3.53;;;;;;;;;;5051162;28;20780;-84
2023/08/26 09:37:48;;;;;;;5.40;3.38;;;;;;;;;;5046049;28;20233;-83
2023/08/26 09:40:15;;;;;;;3.50;3.20;;;;;;;;;;5017667;28;20302;-83
2023/08/26 09:42:41;;;;;;;5.43;3.80;;;;;;;;;;5048924;28;20270;-84
2023/08/26 09:45:10;;;;;;;5.45;3.40;;;;;;;;;;5031136;28;20727;-83
2023/08/26 09:47:36;;;;;;;4.10;3.78;;;;;;;;;;5022060;28;20230;-83
2023/08/26 09:50:03;;;;;;;5.03;3.88;;;;;;;;;;5015589;28;20341;-83
2023/08/26 09:52:30;;;;;;;4.53;3.97;;;;;;;;;;5018369;28;20260;-82
2023/08/26 09:54:58;;;;;;;5.47;4.05;;;;;;;;;;5008250;28;20219;-80
2023/08/26 09:57:27;;;;;;;5.72;5.10;;;;;;;;;;5007849;28;20231;-83
2023/08/26 09:59:54;;;;;;;5.45;4.95;;;;;;;;;;5029262;28;20226;-83
2023/08/26 10:02:22;;;;;;;6.47;5.50;;;;;;;;;;5008713;28;20218;-81
2023/08/26 10:04:57;;;;;;;5.53;5.03;;;;;;;;;;5025808;28;20242;-84
2023/08/26 10:07:25;;;;;;;8.73;5.63;;;;;;;;;;5046975;28;20282;-84
2023/08/26 10:10:25;;;;;;;6.15;5.43;;;;;;;;;;5013660;28;20234;-81
2023/08/26 10:12:56;;;;;;;6.82;4.93;;;;;;;;;;5016273;28;20234;-85
2023/08/26 10:15:21;;;;;;;8.13;5.10;;;;;;;;;;5043841;28;20274;-84
2023/08/26 10:17:52;;;;;;;4.43;4.03;;;;;;;;;;5041682;28;20225;-84
2023/08/26 10:20:20;;;;;;;5.57;3.70;;;;;;;;;;5056402;28;20215;-86
2023/08/26 10:22:45;;;;;;;6.50;3.15;;;;;;;;;;5041699;28;20297;-84
2023/08/26 10:25:16;;;;;;;7.03;3.58;;;;;;;;;;5022530;28;20224;-84
2023/08/26 10:27:42;;;;;;;3.78;3.30;;;;;;;;;;5035944;28;20800;-86
2023/08/26 10:30:08;;;;;;;6.97;3.45;;;;;;;;;;5049661;28;20215;-83
2023/08/26 10:32:42;;;;;;;3.85;3.40;;;;;;;;;;5036491;28;20775;-84
2023/08/26 10:35:12;;;;;;;7.75;3.67;;;;;;;;;;5015031;28;20231;-84
2023/08/26 10:37:38;;;;;;;5.88;3.38;;;;;;;;;;5017130;28;20697;-84
2023/08/26 10:40:09;;;;;;;2.95;2.35;;;;;;;;;;5025757;28;20222;-83
2023/08/26 10:42:36;;;;;;;7.60;2.22;;;;;;;;;;5054874;28;20230;-85
2023/08/26 10:45:02;;;;;;;5.88;2.60;;;;;;;;;;5016561;28;20227;-84
2023/08/26 10:47:40;;;;;;;3.35;1.70;;;;;;;;;;5038117;28;20280;-85
2023/08/26 10:50:26;;;;;;;5.05;2.00;;;;;;;;;;5035908;28;20230;-86
2023/08/26 10:52:56;;;;;;;3.65;2.38;;;;;;;;;;5056008;28;20230;-85
2023/08/26 10:55:34;;;;;;;4.32;2.20;;;;;;;;;;5057322;28;20758;-86
2023/08/26 10:58:18;;;;;;;3.47;2.30;;;;;;;;;;5021370;28;20222;-83
2023/08/26 11:00:50;;;;;;;3.05;2.03;;;;;;;;;;5037585;28;20249;-84
2023/08/26 11:03:22;;;;;;;6.05;2.10;;;;;;;;;;5035636;28;20220;-84
2023/08/26 11:06:09;;;;;;;3.30;2.08;;;;;;;;;;5038312;28;20286;-82
2023/08/26 11:08:38;;;;;;;8.38;2.38;;;;;;;;;;5054134;28;21159;-85
2023/08/26 11:11:07;;;;;;;2.60;1.75;;;;;;;;;;5019466;28;20592;-85
2023/08/26 11:13:32;;;;;;;4.45;1.80;;;;;;;;;;5005007;28;20286;-83
2023/08/26 11:15:58;;;;;;;4.13;1.80;;;;;;;;;;5007744;28;20215;-84
2023/08/26 11:18:26;;;;;;;3.67;1.73;;;;;;;;;;5010373;28;20718;-85
2023/08/26 11:20:51;;;;;;;3.67;1.73;;;;;;;;;;5033661;28;20298;-85
2023/08/26 11:23:20;;;;;;;5.03;1.85;;;;;;;;;;5029559;28;20964;-85
2023/08/26 11:25:50;;;;;;;3.03;1.67;;;;;;;;;;5017456;28;20318;-85
2023/08/26 11:28:20;;;;;;;3.17;1.70;;;;;;;;;;5023521;28;20688;-82
2023/08/26 11:30:46;;;;;;;2.42;1.60;;;;;;;;;;5050563;28;20280;-83
2023/08/26 11:33:20;;;;;;;3.78;1.70;;;;;;;;;;5031707;28;20289;-87
2023/08/26 11:35:49;;;;;;;2.63;1.60;;;;;;;;;;5035983;28;20265;-85
2023/08/26 11:38:16;;;;;;;3.67;1.73;;;;;;;;;;5021464;28;20226;-86
2023/08/26 11:40:47;;;;;;;11.13;2.05;;;;;;;;;;5013396;28;20223;-86
2023/08/26 11:43:17;;;;;;;2.55;1.90;;;;;;;;;;5037619;28;20211;-86
2023/08/26 11:45:45;;;;;;;3.30;1.48;;;;;;;;;;5036478;28;20231;-86
2023/08/26 11:48:11;;;;;;;5.45;1.80;;;;;;;;;;5000255;28;20234;-86
2023/08/26 11:50:37;;;;;;;9.75;2.10;;;;;;;;;;5015336;28;20302;-86
2023/08/26 11:53:05;;;;;;;4.70;2.13;;;;;;;;;;5036443;28;20222;-87
2023/08/26 11:55:34;;;;;;;3.63;1.60;;;;;;;;;;5036561;28;20825;-84
2023/08/26 11:58:04;;;;;;;2.72;1.48;;;;;;;;;;5037594;28;20245;-86
2023/08/26 12:00:31;;;;;;;2.05;1.60;;;;;;;;;;5051081;28;20364;-84
2023/08/26 12:03:04;;;;;;;2.17;1.63;;;;;;;;;;5027172;28;20222;-87
2023/08/26 12:05:43;;;;;;;5.40;1.60;;;;;;;;;;5018552;28;20225;-86
2023/08/26 12:08:15;;;;;;;3.92;1.60;;;;;;;;;;5015250;28;20230;-84
2023/08/26 12:10:51;;;;;;;2.25;1.40;;;;;;;;;;5034717;28;20219;-79
2023/08/26 12:13:17;;;;;;;2.67;1.48;;;;;;;;;;5042549;28;20219;-79
2023/08/26 12:15:42;;;;;;;4.25;1.55;;;;;;;;;;5009360;28;20269;-80
2023/08/26 12:18:10;;;;;;;2.60;1.42;;;;;;;;;;5024704;28;20226;-78
2023/08/26 12:20:37;;;;;;;2.20;1.20;;;;;;;;;;5009722;28;20230;-78
2023/08/26 12:23:09;;;;;;;2.53;1.27;;;;;;;;;;5011072;28;20223;-78
2023/08/26 12:25:37;;;;;;;3.30;1.25;;;;;;;;;;5032368;28;20238;-77
2023/08/26 12:28:18;;;;;;;3.35;1.50;;;;;;;;;;5023221;28;20226;-79
2023/08/26 12:30:45;;;;;;;5.72;1.45;;;;;;;;;;5031711;28;20249;-77
2023/08/26 12:33:13;;;;;;;2.03;1.23;;;;;;;;;;5032487;28;20252;-79
2023/08/26 12:35:41;;;;;;;2.47;1.30;;;;;;;;;;5033827;28;20628;-78
2023/08/26 12:38:08;;;;;;;2.65;1.48;;;;;;;;;;5028039;28;20226;-78
2023/08/26 12:40:35;;;;;;;4.40;1.20;;;;;;;;;;5045723;28;20222;-79
2023/08/26 12:43:06;;;;;;;6.20;1.38;;;;;;;;;;5044985;28;20218;-78
2023/08/26 12:45:32;;;;;;;3.45;1.30;;;;;;;;;;5034933;28;20225;-78
2023/08/26 12:47:58;;;;;;;1.75;1.00;;;;;;;;;;5014061;28;20215;-78
2023/08/26 12:50:26;;;;;;;1.70;1.20;;;;;;;;;;5014824;28;20665;-77
2023/08/26 12:52:51;;;;;;;2.50;1.30;;;;;;;;;;5007606;28;20229;-78
2023/08/26 12:55:19;;;;;;;2.22;1.10;;;;;;;;;;5028472;28;20582;-78
2023/08/26 12:57:45;;;;;;;1.10;1.00;;;;;;;;;;5017433;28;20223;-78
2023/08/26 13:00:13;;;;;;;2.65;1.15;;;;;;;;;;5026646;28;20639;-77
2023/08/26 13:02:38;;;;;;;5.63;1.35;;;;;;;;;;5048674;28;20333;-77
2023/08/26 13:05:10;;;;;;;2.20;1.20;;;;;;;;;;5012200;28;20210;-77
2023/08/26 13:07:38;;;;;;;1.90;1.02;;;;;;;;;;5044899;28;20247;-78
2023/08/26 13:10:04;;;;;;;1.25;1.15;;;;;;;;;;5017026;28;20230;-78
2023/08/26 13:12:30;;;;;;;4.70;1.20;;;;;;;;;;5018808;28;20694;-77
2023/08/26 13:14:56;;;;;;;5.78;1.30;;;;;;;;;;5055147;28;20229;-76
2023/08/26 13:17:24;;;;;;;4.63;1.40;;;;;;;;;;5006837;28;20214;-77
2023/08/26 13:19:50;;;;;;;1.60;1.02;;;;;;;;;;5037251;28;20227;-78
2023/08/26 13:22:19;;;;;;;3.75;1.15;;;;;;;;;;5029192;28;20324;-76
2023/08/26 13:24:44;;;;;;;2.72;1.25;;;;;;;;;;5028863;28;20215;-78
2023/08/26 13:27:10;;;;;;;1.60;1.00;;;;;;;;;;5024841;28;20710;-77
2023/08/26 13:29:35;;;;;;;2.97;1.27;;;;;;;;;;5033884;28;20224;-77
2023/08/26 13:32:04;;;;;;;2.25;1.35;;;;;;;;;;5022885;28;20230;-78
2023/08/26 13:34:30;;;;;;;2.05;1.17;;;;;;;;;;5037174;28;20231;-79
2023/08/26 13:36:55;;;;;;;4.28;1.20;;;;;;;;;;5049126;28;20254;-78
2023/08/26 13:39:21;;;;;;;1.30;1.20;;;;;;;;;;5044375;28;20215;-75
2023/08/26 13:41:49;;;;;;;1.80;0.95;;;;;;;;;;5046074;28;20229;-78
2023/08/26 13:44:15;;;;;;;2.40;1.30;;;;;;;;;;5037319;28;20230;-77
2023/08/26 13:46:40;;;;;;;3.63;1.45;;;;;;;;;;5034196;28;20227;-77
2023/08/26 13:49:06;;;;;;;1.65;1.25;;;;;;;;;;5014510;28;20215;-77
2023/08/26 13:51:31;;;;;;;1.40;1.23;;;;;;;;;;5017913;28;20291;-78
2023/08/26 13:53:59;;;;;;;2.42;1.20;;;;;;;;;;5051218;28;20774;-80
2023/08/26 13:56:29;;;;;;;4.18;1.40;;;;;;;;;;5063697;28;20248;-78
2023/08/26 13:59:00;;;;;;;1.50;1.08;;;;;;;;;;5065970;28;20313;-79
2023/08/26 14:01:28;;;;;;;2.67;1.13;;;;;;;;;;5051113;28;20273;-78
2023/08/26 14:03:57;;;;;;;1.88;0.95;;;;;;;;;;5037258;28;20287;-77
2023/08/26 14:06:28;;;;;;;2.80;1.10;;;;;;;;;;5033846;28;20221;-78
2023/08/26 14:08:56;;;;;;;4.13;1.13;;;;;;;;;;5053363;28;20292;-77
2023/08/26 14:11:27;;;;;;;1.23;1.05;;;;;;;;;;5042956;28;20239;-77
2023/08/26 14:13:53;;;;;;;1.70;1.10;;;;;;;;;;5043861;28;20223;-77
2023/08/26 14:16:19;;;;;;;1.83;1.10;;;;;;;;;;5034187;28;20210;-77
2023/08/26 14:18:45;;;;;;;1.60;1.30;;;;;;;;;;5033805;28;20241;-77
2023/08/26 14:21:10;;;;;;;2.88;1.30;;;;;;;;;;5049263;28;20208;-77
2023/08/26 14:23:38;;;;;;;2.97;1.10;;;;;;;;;;5046533;28;20223;-78
2023/08/26 14:26:04;;;;;;;1.67;1.13;;;;;;;;;;5029005;28;20240;-77
2023/08/26 14:28:29;;;;;;;4.53;1.17;;;;;;;;;;5031073;28;20218;-78
2023/08/26 14:30:57;;;;;;;4.63;1.38;;;;;;;;;;5035529;28;20741;-79
2023/08/26 14:33:23;;;;;;;3.63;1.20;;;;;;;;;;5036170;28;20219;-79
2023/08/26 14:35:52;;;;;;;2.28;1.15;;;;;;;;;;5037975;28;20222;-77
2023/08/26 14:38:21;;;;;;;1.40;1.17;;;;;;;;;;5037818;28;20241;-78